Big Bear Station Historical Data
Daily Summary for November 13, 2017 Units:  English    Metric   Both
« Previous Day
Next Day »
Daily Weekly Monthly Yearly Custom
  High: Low: Average:
Temperature: 60.4 °F 37.4 °F 46 °F
Dew Point: 25.6 °F 0.7 °F 18.1 °F
Humidity: 56 % 19 % 34 %
Wind Speed: 3.7 mph 0.0 mph 1 mph
Wind Gust: -999.0 mph - -
Wind:- - West
Pressure: 30.28 in 30.22 in -
Precipitation: 0.00 in    
Historical Graphs
 
 
Tabular Data for November 13, 2017
Time Temperature Dew Point Pressure Wind Wind Speed Wind Gust Humidity Rainfall Rate (Hourly)
00:15 41.9 °F 4.8 °F 30.23 in Calm   -999.0 mph 21 % 0 in
00:30 41.5 °F 5.4 °F 30.23 in Calm   -999.0 mph 22 % 0 in
00:45 41.0 °F 5.0 °F 30.23 in Calm   -999.0 mph 22 % 0 in
01:00 40.8 °F 6.8 °F 30.23 in South 1.7 mph -999.0 mph 24 % 0 in
01:15 40.3 °F 8.1 °F 30.23 in Calm   -999.0 mph 26 % 0 in
01:31 40.5 °F 11.5 °F 30.23 in SSE 2.2 mph -999.0 mph 30 % 0 in
01:46 39.7 °F 6.7 °F 30.23 in Calm   -999.0 mph 25 % 0 in
02:01 40.8 °F 3.8 °F 30.23 in Calm   -999.0 mph 21 % 0 in
02:16 39.7 °F 0.7 °F 30.23 in Calm   -999.0 mph 19 % 0 in
02:31 39.7 °F 2.9 °F 30.23 in South 1.7 mph -999.0 mph 21 % 0 in
02:47 38.8 °F 6.8 °F 30.23 in Calm   -999.0 mph 26 % 0 in
03:02 38.3 °F 11.7 °F 30.22 in South 1.1 mph -999.0 mph 33 % 0 in
03:18 38.5 °F 14.5 °F 30.22 in Calm   -999.0 mph 37 % 0 in
03:33 39.9 °F 12.4 °F 30.22 in Calm   -999.0 mph 32 % 0 in
03:48 38.8 °F 12.8 °F 30.22 in Calm   -999.0 mph 34 % 0 in
04:03 39.0 °F 12.3 °F 30.22 in SSE 2.2 mph -999.0 mph 33 % 0 in
04:19 38.7 °F 13.4 °F 30.22 in Calm   -999.0 mph 35 % 0 in
04:34 39.6 °F 13.5 °F 30.22 in South 2.2 mph -999.0 mph 34 % 0 in
04:49 39.2 °F 13.2 °F 30.23 in Calm   -999.0 mph 34 % 0 in
05:05 40.6 °F 14.4 °F 30.23 in SSW 2.7 mph -999.0 mph 34 % 0 in
05:20 39.4 °F 14.0 °F 30.23 in Calm   -999.0 mph 35 % 0 in
05:35 39.0 °F 18.4 °F 30.23 in Calm   -999.0 mph 43 % 0 in
05:50 38.5 °F 19.5 °F 30.24 in Calm   -999.0 mph 46 % 0 in
06:06 38.3 °F 20.3 °F 30.24 in Calm   -999.0 mph 48 % 0 in
06:21 37.8 °F 17.8 °F 30.24 in Calm   -999.0 mph 44 % 0 in
06:36 38.1 °F 18.1 °F 30.25 in Calm   -999.0 mph 44 % 0 in
06:51 37.6 °F 19.2 °F 30.25 in Calm   -999.0 mph 47 % 0 in
07:06 37.6 °F 14.9 °F 30.25 in Calm   -999.0 mph 39 % 0 in
07:22 37.4 °F 13.5 °F 30.26 in Calm   -999.0 mph 37 % 0 in
07:37 38.3 °F 16.6 °F 30.27 in Calm   -999.0 mph 41 % 0 in
07:53 38.8 °F 16.5 °F 30.27 in Calm   -999.0 mph 40 % 0 in
08:08 41.0 °F 19.6 °F 30.27 in South 1.7 mph -999.0 mph 42 % 0 in
08:23 42.8 °F 21.8 °F 30.27 in Calm   -999.0 mph 43 % 0 in
08:38 44.8 °F 25.3 °F 30.28 in Calm   -999.0 mph 46 % 0 in
08:53 47.8 °F 22.1 °F 30.28 in West 1.1 mph -999.0 mph 36 % 0 in
09:09 52.3 °F 13.5 °F 30.28 in WNW 1.7 mph -999.0 mph 21 % 0 in
09:39 57.0 °F 15.1 °F 30.28 in NW 2.7 mph -999.0 mph 19 % 0 in
09:54 57.2 °F 16.5 °F 30.28 in Calm   -999.0 mph 20 % 0 in
10:10 57.2 °F 17.6 °F 30.28 in NW 2.7 mph -999.0 mph 21 % 0 in
10:25 57.2 °F 17.6 °F 30.28 in WNW 2.2 mph -999.0 mph 21 % 0 in
10:40 58.3 °F 18.5 °F 30.28 in WNW 2.7 mph -999.0 mph 21 % 0 in
10:55 59.2 °F 20.3 °F 30.28 in NNW 3.7 mph -999.0 mph 22 % 0 in
11:10 58.8 °F 24.0 °F 30.27 in WNW 3.2 mph -999.0 mph 26 % 0 in
11:41 59.7 °F 21.8 °F 30.27 in NW 3.7 mph -999.0 mph 23 % 0 in
11:56 60.4 °F 23.4 °F 30.26 in North 2.2 mph -999.0 mph 24 % 0 in
12:11 59.4 °F 23.5 °F 30.25 in NW 3.2 mph -999.0 mph 25 % 0 in
12:26 58.8 °F 24.0 °F 30.25 in NW 3.2 mph -999.0 mph 26 % 0 in
12:42 58.5 °F 21.8 °F 30.25 in NW 2.2 mph -999.0 mph 24 % 0 in
12:57 58.5 °F 20.8 °F 30.25 in NW 3.2 mph -999.0 mph 23 % 0 in
13:12 58.5 °F 21.8 °F 30.24 in NW 2.7 mph -999.0 mph 24 % 0 in
13:27 58.1 °F 19.4 °F 30.24 in WNW 1.7 mph -999.0 mph 22 % 0 in
13:43 58.1 °F 21.5 °F 30.24 in Calm   -999.0 mph 24 % 0 in
13:58 58.6 °F 21.9 °F 30.24 in WNW 3.2 mph -999.0 mph 24 % 0 in
14:14 58.1 °F 22.4 °F 30.24 in WNW 3.2 mph -999.0 mph 25 % 0 in
14:29 57.9 °F 22.3 °F 30.24 in WNW 3.7 mph -999.0 mph 25 % 0 in
14:44 57.6 °F 25.6 °F 30.24 in NNW 3.2 mph -999.0 mph 29 % 0 in
14:59 57.4 °F 25.4 °F 30.24 in NNW 2.7 mph -999.0 mph 29 % 0 in
15:14 57.0 °F 24.2 °F 30.24 in WNW 1.7 mph -999.0 mph 28 % 0 in
15:30 56.3 °F 24.4 °F 30.24 in NW 2.2 mph -999.0 mph 29 % 0 in
15:45 55.4 °F 23.6 °F 30.24 in NNW 2.2 mph -999.0 mph 29 % 0 in
16:00 54.7 °F 24.6 °F 30.24 in SW 2.2 mph -999.0 mph 31 % 0 in
16:15 53.6 °F 23.7 °F 30.24 in West 1.7 mph -999.0 mph 31 % 0 in
16:30 52.7 °F 23.6 °F 30.24 in Calm   -999.0 mph 32 % 0 in
16:46 51.6 °F 22.7 °F 30.24 in Calm   -999.0 mph 32 % 0 in
17:01 50.5 °F 22.4 °F 30.24 in Calm   -999.0 mph 33 % 0 in
17:16 50.0 °F 22.0 °F 30.24 in Calm   -999.0 mph 33 % 0 in
17:31 49.1 °F 21.2 °F 30.25 in Calm   -999.0 mph 33 % 0 in
17:47 47.3 °F 21.7 °F 30.25 in Calm   -999.0 mph 36 % 0 in
18:02 46.4 °F 21.5 °F 30.25 in Calm   -999.0 mph 37 % 0 in
18:17 45.3 °F 20.5 °F 30.25 in Calm   -999.0 mph 37 % 0 in
18:33 44.2 °F 20.2 °F 30.25 in Calm   -999.0 mph 38 % 0 in
18:48 43.3 °F 20.0 °F 30.25 in Calm   -999.0 mph 39 % 0 in
19:03 42.8 °F 20.1 °F 30.25 in Calm   -999.0 mph 40 % 0 in
19:18 41.9 °F 22.1 °F 30.26 in Calm   -999.0 mph 45 % 0 in
19:33 41.4 °F 23.2 °F 30.26 in Calm   -999.0 mph 48 % 0 in
19:49 41.2 °F 23.5 °F 30.26 in Calm   -999.0 mph 49 % 0 in
20:04 41.0 °F 23.8 °F 30.26 in Calm   -999.0 mph 50 % 0 in
20:19 40.6 °F 21.4 °F 30.27 in Calm   -999.0 mph 46 % 0 in
20:34 40.3 °F 19.6 °F 30.26 in Calm   -999.0 mph 43 % 0 in
20:50 40.1 °F 17.7 °F 30.26 in Calm   -999.0 mph 40 % 0 in
21:05 39.4 °F 20.3 °F 30.26 in Calm   -999.0 mph 46 % 0 in
21:20 39.6 °F 20.0 °F 30.26 in South 1.7 mph -999.0 mph 45 % 0 in
21:36 39.0 °F 21.0 °F 30.26 in Calm   -999.0 mph 48 % 0 in
21:51 38.7 °F 20.2 °F 30.26 in Calm   -999.0 mph 47 % 0 in
22:06 38.3 °F 19.3 °F 30.26 in Calm   -999.0 mph 46 % 0 in
22:21 37.9 °F 23.6 °F 30.25 in Calm   -999.0 mph 56 % 0 in
22:37 38.1 °F 21.1 °F 30.25 in Calm   -999.0 mph 50 % 0 in
22:52 37.9 °F 20.9 °F 30.25 in Calm   -999.0 mph 50 % 0 in
23:07 38.8 °F 22.2 °F 30.25 in SSW 1.1 mph -999.0 mph 51 % 0 in
23:22 39.9 °F 16.3 °F 30.25 in Calm   -999.0 mph 38 % 0 in
23:37 43.0 °F 17.2 °F 30.24 in SSW 1.1 mph -999.0 mph 35 % 0 in
23:53 43.7 °F 17.1 °F 30.24 in Calm   -999.0 mph 34 % 0 in
Big Bear CA Weather
Compliments of Weather Underground - 1.5 mb